sensor_id;sensor_type;location;lat;lon;timestamp;P1;durP1;ratioP1;P2;durP2;ratioP2
7545;SDS011;3814;51.454;12.616;2024-02-04T00:00:00;4.03;;;2.43;;
7545;SDS011;3814;51.454;12.616;2024-02-04T00:02:25;4.37;;;2.63;;
7545;SDS011;3814;51.454;12.616;2024-02-04T00:04:51;3.57;;;2.30;;
7545;SDS011;3814;51.454;12.616;2024-02-04T00:07:16;3.53;;;2.40;;
7545;SDS011;3814;51.454;12.616;2024-02-04T00:09:42;5.23;;;3.03;;
7545;SDS011;3814;51.454;12.616;2024-02-04T00:12:08;3.92;;;2.40;;
7545;SDS011;3814;51.454;12.616;2024-02-04T00:14:34;3.35;;;2.50;;
7545;SDS011;3814;51.454;12.616;2024-02-04T00:16:59;4.30;;;2.33;;
7545;SDS011;3814;51.454;12.616;2024-02-04T00:19:25;3.63;;;2.57;;
7545;SDS011;3814;51.454;12.616;2024-02-04T00:21:50;4.27;;;2.57;;
7545;SDS011;3814;51.454;12.616;2024-02-04T00:24:15;4.00;;;2.47;;
7545;SDS011;3814;51.454;12.616;2024-02-04T00:26:40;4.70;;;2.67;;
7545;SDS011;3814;51.454;12.616;2024-02-04T00:29:06;3.30;;;2.20;;
7545;SDS011;3814;51.454;12.616;2024-02-04T00:31:31;4.23;;;2.50;;
7545;SDS011;3814;51.454;12.616;2024-02-04T00:33:56;4.60;;;2.47;;
7545;SDS011;3814;51.454;12.616;2024-02-04T00:36:22;4.03;;;2.67;;
7545;SDS011;3814;51.454;12.616;2024-02-04T00:38:47;4.50;;;2.70;;
7545;SDS011;3814;51.454;12.616;2024-02-04T00:41:12;4.13;;;2.73;;
7545;SDS011;3814;51.454;12.616;2024-02-04T00:43:37;4.10;;;2.63;;
7545;SDS011;3814;51.454;12.616;2024-02-04T00:46:03;4.67;;;3.03;;
7545;SDS011;3814;51.454;12.616;2024-02-04T00:48:29;4.60;;;2.63;;
7545;SDS011;3814;51.454;12.616;2024-02-04T00:50:54;5.20;;;2.73;;
7545;SDS011;3814;51.454;12.616;2024-02-04T00:53:19;7.30;;;3.30;;
7545;SDS011;3814;51.454;12.616;2024-02-04T00:55:45;4.70;;;3.10;;
7545;SDS011;3814;51.454;12.616;2024-02-04T00:58:10;7.00;;;3.30;;
7545;SDS011;3814;51.454;12.616;2024-02-04T01:00:35;6.80;;;3.03;;
7545;SDS011;3814;51.454;12.616;2024-02-04T01:03:00;4.67;;;2.83;;
7545;SDS011;3814;51.454;12.616;2024-02-04T01:05:26;7.03;;;3.17;;
7545;SDS011;3814;51.454;12.616;2024-02-04T01:07:51;5.40;;;3.33;;
7545;SDS011;3814;51.454;12.616;2024-02-04T01:10:16;4.30;;;2.77;;
7545;SDS011;3814;51.454;12.616;2024-02-04T01:12:42;7.07;;;3.53;;
7545;SDS011;3814;51.454;12.616;2024-02-04T01:15:07;6.07;;;3.20;;
7545;SDS011;3814;51.454;12.616;2024-02-04T01:17:33;5.25;;;3.22;;
7545;SDS011;3814;51.454;12.616;2024-02-04T01:19:58;6.40;;;3.35;;
7545;SDS011;3814;51.454;12.616;2024-02-04T01:22:24;5.73;;;3.40;;
7545;SDS011;3814;51.454;12.616;2024-02-04T01:24:52;5.68;;;3.03;;
7545;SDS011;3814;51.454;12.616;2024-02-04T01:27:17;5.47;;;3.20;;
7545;SDS011;3814;51.454;12.616;2024-02-04T01:29:42;6.83;;;3.60;;
7545;SDS011;3814;51.454;12.616;2024-02-04T01:32:07;5.30;;;3.80;;
7545;SDS011;3814;51.454;12.616;2024-02-04T01:34:33;6.77;;;2.77;;
7545;SDS011;3814;51.454;12.616;2024-02-04T01:36:58;5.63;;;3.33;;
7545;SDS011;3814;51.454;12.616;2024-02-04T01:39:23;5.57;;;3.37;;
7545;SDS011;3814;51.454;12.616;2024-02-04T01:41:48;5.13;;;3.30;;
7545;SDS011;3814;51.454;12.616;2024-02-04T01:44:14;5.90;;;3.50;;
7545;SDS011;3814;51.454;12.616;2024-02-04T01:46:41;7.00;;;3.50;;
7545;SDS011;3814;51.454;12.616;2024-02-04T01:49:06;6.23;;;3.23;;
7545;SDS011;3814;51.454;12.616;2024-02-04T01:51:31;6.00;;;3.47;;
7545;SDS011;3814;51.454;12.616;2024-02-04T01:53:57;5.75;;;3.38;;
7545;SDS011;3814;51.454;12.616;2024-02-04T01:56:22;5.07;;;3.03;;
7545;SDS011;3814;51.454;12.616;2024-02-04T01:58:47;5.93;;;3.70;;
7545;SDS011;3814;51.454;12.616;2024-02-04T02:01:13;7.35;;;4.00;;
7545;SDS011;3814;51.454;12.616;2024-02-04T02:03:39;6.20;;;3.65;;
7545;SDS011;3814;51.454;12.616;2024-02-04T02:06:05;6.32;;;3.58;;
7545;SDS011;3814;51.454;12.616;2024-02-04T02:08:30;7.72;;;4.07;;
7545;SDS011;3814;51.454;12.616;2024-02-04T02:10:59;7.97;;;3.70;;
7545;SDS011;3814;51.454;12.616;2024-02-04T02:13:29;7.70;;;3.70;;
7545;SDS011;3814;51.454;12.616;2024-02-04T02:15:57;10.88;;;3.95;;
7545;SDS011;3814;51.454;12.616;2024-02-04T02:21:15;8.18;;;4.30;;
7545;SDS011;3814;51.454;12.616;2024-02-04T02:23:48;8.02;;;3.60;;
7545;SDS011;3814;51.454;12.616;2024-02-04T02:26:18;8.50;;;4.30;;
7545;SDS011;3814;51.454;12.616;2024-02-04T02:28:44;10.15;;;4.15;;
7545;SDS011;3814;51.454;12.616;2024-02-04T02:31:10;8.30;;;4.30;;
7545;SDS011;3814;51.454;12.616;2024-02-04T02:33:35;6.38;;;4.03;;
7545;SDS011;3814;51.454;12.616;2024-02-04T02:36:01;9.10;;;4.23;;
7545;SDS011;3814;51.454;12.616;2024-02-04T02:38:36;9.95;;;5.20;;
7545;SDS011;3814;51.454;12.616;2024-02-04T02:41:06;9.20;;;4.55;;
7545;SDS011;3814;51.454;12.616;2024-02-04T02:43:33;9.15;;;4.68;;
7545;SDS011;3814;51.454;12.616;2024-02-04T02:45:59;7.40;;;4.03;;
7545;SDS011;3814;51.454;12.616;2024-02-04T02:48:24;7.45;;;4.25;;
7545;SDS011;3814;51.454;12.616;2024-02-04T02:50:50;7.35;;;3.88;;
7545;SDS011;3814;51.454;12.616;2024-02-04T02:53:15;6.87;;;4.10;;
7545;SDS011;3814;51.454;12.616;2024-02-04T02:55:41;9.55;;;4.63;;
7545;SDS011;3814;51.454;12.616;2024-02-04T02:58:06;8.47;;;4.00;;
7545;SDS011;3814;51.454;12.616;2024-02-04T03:00:32;8.75;;;4.55;;
7545;SDS011;3814;51.454;12.616;2024-02-04T03:02:57;6.78;;;4.20;;
7545;SDS011;3814;51.454;12.616;2024-02-04T03:05:23;7.47;;;4.00;;
7545;SDS011;3814;51.454;12.616;2024-02-04T03:07:49;8.27;;;3.88;;
7545;SDS011;3814;51.454;12.616;2024-02-04T03:10:14;7.93;;;3.47;;
7545;SDS011;3814;51.454;12.616;2024-02-04T03:12:39;7.97;;;3.97;;
7545;SDS011;3814;51.454;12.616;2024-02-04T03:15:05;7.23;;;3.87;;
7545;SDS011;3814;51.454;12.616;2024-02-04T03:17:30;8.20;;;3.95;;
7545;SDS011;3814;51.454;12.616;2024-02-04T03:19:56;8.33;;;4.37;;
7545;SDS011;3814;51.454;12.616;2024-02-04T03:22:21;7.67;;;4.27;;
7545;SDS011;3814;51.454;12.616;2024-02-04T03:24:47;9.50;;;4.68;;
7545;SDS011;3814;51.454;12.616;2024-02-04T03:27:12;9.05;;;4.30;;
7545;SDS011;3814;51.454;12.616;2024-02-04T03:29:38;9.43;;;4.60;;
7545;SDS011;3814;51.454;12.616;2024-02-04T03:32:03;8.60;;;4.73;;
7545;SDS011;3814;51.454;12.616;2024-02-04T03:34:29;11.18;;;4.90;;
7545;SDS011;3814;51.454;12.616;2024-02-04T03:36:54;10.17;;;4.13;;
7545;SDS011;3814;51.454;12.616;2024-02-04T03:39:19;8.07;;;4.40;;
7545;SDS011;3814;51.454;12.616;2024-02-04T03:41:45;8.37;;;4.20;;
7545;SDS011;3814;51.454;12.616;2024-02-04T03:44:10;9.20;;;4.73;;
7545;SDS011;3814;51.454;12.616;2024-02-04T03:46:35;9.37;;;4.30;;
7545;SDS011;3814;51.454;12.616;2024-02-04T03:49:04;7.03;;;4.55;;
7545;SDS011;3814;51.454;12.616;2024-02-04T03:51:30;9.00;;;5.10;;
7545;SDS011;3814;51.454;12.616;2024-02-04T03:53:55;7.67;;;3.80;;
7545;SDS011;3814;51.454;12.616;2024-02-04T03:56:20;8.03;;;3.70;;
7545;SDS011;3814;51.454;12.616;2024-02-04T03:58:46;7.27;;;3.57;;
7545;SDS011;3814;51.454;12.616;2024-02-04T04:01:11;5.53;;;3.50;;
7545;SDS011;3814;51.454;12.616;2024-02-04T04:03:43;7.72;;;3.80;;
7545;SDS011;3814;51.454;12.616;2024-02-04T04:06:09;5.53;;;3.13;;
7545;SDS011;3814;51.454;12.616;2024-02-04T04:08:35;8.32;;;3.92;;
7545;SDS011;3814;51.454;12.616;2024-02-04T04:11:00;8.07;;;3.80;;
7545;SDS011;3814;51.454;12.616;2024-02-04T04:13:25;6.37;;;3.43;;
7545;SDS011;3814;51.454;12.616;2024-02-04T04:15:51;7.83;;;3.40;;
7545;SDS011;3814;51.454;12.616;2024-02-04T04:18:16;7.50;;;3.47;;
7545;SDS011;3814;51.454;12.616;2024-02-04T04:20:41;11.43;;;3.97;;
7545;SDS011;3814;51.454;12.616;2024-02-04T04:23:07;7.13;;;3.50;;
7545;SDS011;3814;51.454;12.616;2024-02-04T04:25:32;7.53;;;3.72;;
7545;SDS011;3814;51.454;12.616;2024-02-04T04:27:58;6.05;;;3.35;;
7545;SDS011;3814;51.454;12.616;2024-02-04T04:30:23;7.00;;;3.10;;
7545;SDS011;3814;51.454;12.616;2024-02-04T04:32:48;6.82;;;2.80;;
7545;SDS011;3814;51.454;12.616;2024-02-04T04:35:14;8.87;;;4.30;;
7545;SDS011;3814;51.454;12.616;2024-02-04T04:37:39;7.17;;;3.70;;
7545;SDS011;3814;51.454;12.616;2024-02-04T04:40:05;8.50;;;3.77;;
7545;SDS011;3814;51.454;12.616;2024-02-04T04:42:30;6.60;;;3.25;;
7545;SDS011;3814;51.454;12.616;2024-02-04T04:44:56;6.72;;;3.72;;
7545;SDS011;3814;51.454;12.616;2024-02-04T04:47:21;7.73;;;3.13;;
7545;SDS011;3814;51.454;12.616;2024-02-04T04:49:46;5.57;;;3.40;;
7545;SDS011;3814;51.454;12.616;2024-02-04T04:52:12;5.87;;;3.40;;
7545;SDS011;3814;51.454;12.616;2024-02-04T04:54:38;7.03;;;2.95;;
7545;SDS011;3814;51.454;12.616;2024-02-04T04:57:04;6.60;;;3.30;;
7545;SDS011;3814;51.454;12.616;2024-02-04T04:59:29;6.20;;;3.30;;
7545;SDS011;3814;51.454;12.616;2024-02-04T05:01:54;5.73;;;2.90;;
7545;SDS011;3814;51.454;12.616;2024-02-04T05:04:20;6.97;;;3.07;;
7545;SDS011;3814;51.454;12.616;2024-02-04T05:06:48;6.60;;;3.30;;
7545;SDS011;3814;51.454;12.616;2024-02-04T05:09:13;5.23;;;3.10;;
7545;SDS011;3814;51.454;12.616;2024-02-04T05:11:39;8.60;;;4.00;;
7545;SDS011;3814;51.454;12.616;2024-02-04T05:14:04;7.67;;;3.60;;
7545;SDS011;3814;51.454;12.616;2024-02-04T05:16:30;5.27;;;3.10;;
7545;SDS011;3814;51.454;12.616;2024-02-04T05:18:55;7.28;;;3.05;;
7545;SDS011;3814;51.454;12.616;2024-02-04T05:21:20;8.07;;;3.77;;
7545;SDS011;3814;51.454;12.616;2024-02-04T05:23:45;7.40;;;3.43;;
7545;SDS011;3814;51.454;12.616;2024-02-04T05:26:11;6.73;;;3.60;;
7545;SDS011;3814;51.454;12.616;2024-02-04T05:28:36;7.60;;;3.10;;
7545;SDS011;3814;51.454;12.616;2024-02-04T05:31:01;6.83;;;3.87;;
7545;SDS011;3814;51.454;12.616;2024-02-04T05:33:27;6.82;;;3.28;;
7545;SDS011;3814;51.454;12.616;2024-02-04T05:35:53;5.47;;;2.92;;
7545;SDS011;3814;51.454;12.616;2024-02-04T05:38:18;5.93;;;2.60;;
7545;SDS011;3814;51.454;12.616;2024-02-04T05:40:43;4.70;;;2.47;;
7545;SDS011;3814;51.454;12.616;2024-02-04T05:43:09;6.03;;;2.83;;
7545;SDS011;3814;51.454;12.616;2024-02-04T05:45:35;5.13;;;2.35;;
7545;SDS011;3814;51.454;12.616;2024-02-04T05:48:02;2.83;;;1.88;;
7545;SDS011;3814;51.454;12.616;2024-02-04T05:50:27;4.45;;;2.42;;
7545;SDS011;3814;51.454;12.616;2024-02-04T05:52:52;5.13;;;1.97;;
7545;SDS011;3814;51.454;12.616;2024-02-04T05:55:18;5.47;;;2.70;;
7545;SDS011;3814;51.454;12.616;2024-02-04T05:57:43;4.10;;;2.40;;
7545;SDS011;3814;51.454;12.616;2024-02-04T06:00:09;4.60;;;2.50;;
7545;SDS011;3814;51.454;12.616;2024-02-04T06:02:35;4.25;;;2.20;;
7545;SDS011;3814;51.454;12.616;2024-02-04T06:05:00;5.32;;;2.67;;
7545;SDS011;3814;51.454;12.616;2024-02-04T06:07:26;4.70;;;2.40;;
7545;SDS011;3814;51.454;12.616;2024-02-04T06:09:51;7.53;;;2.87;;
7545;SDS011;3814;51.454;12.616;2024-02-04T06:12:16;7.43;;;3.60;;
7545;SDS011;3814;51.454;12.616;2024-02-04T06:14:42;6.40;;;3.33;;
7545;SDS011;3814;51.454;12.616;2024-02-04T06:17:07;9.97;;;3.57;;
7545;SDS011;3814;51.454;12.616;2024-02-04T06:19:35;7.88;;;3.92;;
7545;SDS011;3814;51.454;12.616;2024-02-04T06:22:01;6.83;;;3.40;;
7545;SDS011;3814;51.454;12.616;2024-02-04T06:24:26;6.40;;;3.83;;
7545;SDS011;3814;51.454;12.616;2024-02-04T06:26:51;9.20;;;3.87;;
7545;SDS011;3814;51.454;12.616;2024-02-04T06:29:17;5.27;;;3.03;;
7545;SDS011;3814;51.454;12.616;2024-02-04T06:31:45;8.70;;;3.67;;
7545;SDS011;3814;51.454;12.616;2024-02-04T06:34:11;5.55;;;2.80;;
7545;SDS011;3814;51.454;12.616;2024-02-04T06:36:36;6.27;;;3.23;;
7545;SDS011;3814;51.454;12.616;2024-02-04T06:39:02;5.70;;;3.50;;
7545;SDS011;3814;51.454;12.616;2024-02-04T06:41:27;6.50;;;4.13;;
7545;SDS011;3814;51.454;12.616;2024-02-04T06:43:52;6.63;;;3.63;;
7545;SDS011;3814;51.454;12.616;2024-02-04T06:46:24;7.23;;;3.90;;
7545;SDS011;3814;51.454;12.616;2024-02-04T06:48:53;5.68;;;3.20;;
7545;SDS011;3814;51.454;12.616;2024-02-04T06:51:18;6.93;;;3.60;;
7545;SDS011;3814;51.454;12.616;2024-02-04T06:53:43;6.90;;;2.80;;
7545;SDS011;3814;51.454;12.616;2024-02-04T06:56:09;5.63;;;3.23;;
7545;SDS011;3814;51.454;12.616;2024-02-04T06:58:37;6.33;;;3.07;;
7545;SDS011;3814;51.454;12.616;2024-02-04T07:01:02;5.32;;;3.00;;
7545;SDS011;3814;51.454;12.616;2024-02-04T07:03:28;4.88;;;2.78;;
7545;SDS011;3814;51.454;12.616;2024-02-04T07:05:54;6.10;;;3.22;;
7545;SDS011;3814;51.454;12.616;2024-02-04T07:08:19;4.53;;;2.20;;
7545;SDS011;3814;51.454;12.616;2024-02-04T07:10:45;3.93;;;2.53;;
7545;SDS011;3814;51.454;12.616;2024-02-04T07:13:10;3.57;;;2.03;;
7545;SDS011;3814;51.454;12.616;2024-02-04T07:15:36;3.42;;;2.00;;
7545;SDS011;3814;51.454;12.616;2024-02-04T07:18:01;3.17;;;1.93;;
7545;SDS011;3814;51.454;12.616;2024-02-04T07:20:27;2.17;;;1.48;;
7545;SDS011;3814;51.454;12.616;2024-02-04T07:22:52;2.53;;;1.60;;
7545;SDS011;3814;51.454;12.616;2024-02-04T07:25:17;2.60;;;1.53;;
7545;SDS011;3814;51.454;12.616;2024-02-04T07:27:43;1.87;;;1.43;;
7545;SDS011;3814;51.454;12.616;2024-02-04T07:30:08;2.13;;;1.75;;
7545;SDS011;3814;51.454;12.616;2024-02-04T07:32:33;1.92;;;1.40;;
7545;SDS011;3814;51.454;12.616;2024-02-04T07:35:00;2.03;;;1.25;;
7545;SDS011;3814;51.454;12.616;2024-02-04T07:37:25;1.67;;;1.20;;
7545;SDS011;3814;51.454;12.616;2024-02-04T07:39:50;1.93;;;1.33;;
7545;SDS011;3814;51.454;12.616;2024-02-04T07:42:16;1.60;;;0.93;;
7545;SDS011;3814;51.454;12.616;2024-02-04T07:44:41;1.80;;;1.10;;
7545;SDS011;3814;51.454;12.616;2024-02-04T07:47:07;2.50;;;1.10;;
7545;SDS011;3814;51.454;12.616;2024-02-04T07:49:32;1.80;;;1.40;;
7545;SDS011;3814;51.454;12.616;2024-02-04T07:51:57;1.53;;;1.10;;
7545;SDS011;3814;51.454;12.616;2024-02-04T07:54:22;1.17;;;0.70;;
7545;SDS011;3814;51.454;12.616;2024-02-04T07:56:48;2.17;;;1.10;;
7545;SDS011;3814;51.454;12.616;2024-02-04T07:59:13;2.00;;;1.00;;
7545;SDS011;3814;51.454;12.616;2024-02-04T08:01:38;1.60;;;1.07;;
7545;SDS011;3814;51.454;12.616;2024-02-04T08:04:04;1.67;;;0.97;;
7545;SDS011;3814;51.454;12.616;2024-02-04T08:06:30;0.93;;;0.55;;
7545;SDS011;3814;51.454;12.616;2024-02-04T08:08:56;1.83;;;0.60;;
7545;SDS011;3814;51.454;12.616;2024-02-04T08:11:21;3.80;;;0.50;;
7545;SDS011;3814;51.454;12.616;2024-02-04T08:13:47;1.10;;;0.70;;
7545;SDS011;3814;51.454;12.616;2024-02-04T08:16:12;1.00;;;0.70;;
7545;SDS011;3814;51.454;12.616;2024-02-04T08:18:37;2.60;;;1.30;;
7545;SDS011;3814;51.454;12.616;2024-02-04T08:21:03;2.15;;;1.30;;
7545;SDS011;3814;51.454;12.616;2024-02-04T08:23:28;1.75;;;1.05;;
7545;SDS011;3814;51.454;12.616;2024-02-04T08:25:53;2.27;;;1.87;;
7545;SDS011;3814;51.454;12.616;2024-02-04T08:28:19;1.90;;;1.33;;
7545;SDS011;3814;51.454;12.616;2024-02-04T08:30:44;1.63;;;1.10;;
7545;SDS011;3814;51.454;12.616;2024-02-04T08:33:09;1.95;;;1.50;;
7545;SDS011;3814;51.454;12.616;2024-02-04T08:35:35;1.87;;;1.30;;
7545;SDS011;3814;51.454;12.616;2024-02-04T08:38:00;1.27;;;1.00;;
7545;SDS011;3814;51.454;12.616;2024-02-04T08:40:25;3.53;;;1.70;;
7545;SDS011;3814;51.454;12.616;2024-02-04T08:42:51;2.23;;;1.30;;
7545;SDS011;3814;51.454;12.616;2024-02-04T08:45:16;3.53;;;1.43;;
7545;SDS011;3814;51.454;12.616;2024-02-04T08:47:41;2.33;;;1.45;;
7545;SDS011;3814;51.454;12.616;2024-02-04T08:50:07;2.33;;;1.50;;
7545;SDS011;3814;51.454;12.616;2024-02-04T08:52:33;2.10;;;1.50;;
7545;SDS011;3814;51.454;12.616;2024-02-04T08:54:58;1.63;;;1.27;;
7545;SDS011;3814;51.454;12.616;2024-02-04T08:57:24;2.30;;;1.40;;
7545;SDS011;3814;51.454;12.616;2024-02-04T08:59:50;2.17;;;1.50;;
7545;SDS011;3814;51.454;12.616;2024-02-04T09:02:15;1.73;;;1.43;;
7545;SDS011;3814;51.454;12.616;2024-02-04T09:04:40;3.33;;;1.27;;
7545;SDS011;3814;51.454;12.616;2024-02-04T09:07:06;2.13;;;1.30;;
7545;SDS011;3814;51.454;12.616;2024-02-04T09:09:32;1.42;;;0.90;;
7545;SDS011;3814;51.454;12.616;2024-02-04T09:11:58;1.20;;;0.97;;
7545;SDS011;3814;51.454;12.616;2024-02-04T09:14:23;2.60;;;1.63;;
7545;SDS011;3814;51.454;12.616;2024-02-04T09:16:48;1.70;;;1.10;;
7545;SDS011;3814;51.454;12.616;2024-02-04T09:19:13;2.30;;;1.13;;
7545;SDS011;3814;51.454;12.616;2024-02-04T09:21:39;2.70;;;1.48;;
7545;SDS011;3814;51.454;12.616;2024-02-04T09:24:04;2.07;;;1.30;;
7545;SDS011;3814;51.454;12.616;2024-02-04T09:26:30;2.60;;;1.45;;
7545;SDS011;3814;51.454;12.616;2024-02-04T09:28:55;2.80;;;1.70;;
7545;SDS011;3814;51.454;12.616;2024-02-04T09:31:20;2.07;;;1.30;;
7545;SDS011;3814;51.454;12.616;2024-02-04T09:33:45;3.50;;;2.30;;
7545;SDS011;3814;51.454;12.616;2024-02-04T09:36:11;3.97;;;2.10;;
7545;SDS011;3814;51.454;12.616;2024-02-04T09:38:36;3.97;;;1.63;;
7545;SDS011;3814;51.454;12.616;2024-02-04T09:41:01;2.43;;;1.53;;
7545;SDS011;3814;51.454;12.616;2024-02-04T09:43:32;3.10;;;1.83;;
7545;SDS011;3814;51.454;12.616;2024-02-04T09:46:00;2.88;;;1.77;;
7545;SDS011;3814;51.454;12.616;2024-02-04T09:48:25;3.67;;;1.90;;
7545;SDS011;3814;51.454;12.616;2024-02-04T09:50:52;4.57;;;1.63;;
7545;SDS011;3814;51.454;12.616;2024-02-04T09:53:19;3.42;;;1.80;;
7545;SDS011;3814;51.454;12.616;2024-02-04T09:55:47;2.75;;;1.63;;
7545;SDS011;3814;51.454;12.616;2024-02-04T09:58:13;3.03;;;1.60;;
7545;SDS011;3814;51.454;12.616;2024-02-04T10:00:38;3.27;;;1.33;;
7545;SDS011;3814;51.454;12.616;2024-02-04T10:03:05;3.15;;;1.40;;
7545;SDS011;3814;51.454;12.616;2024-02-04T10:05:30;2.28;;;1.25;;
7545;SDS011;3814;51.454;12.616;2024-02-04T10:07:56;1.90;;;1.23;;
7545;SDS011;3814;51.454;12.616;2024-02-04T10:10:21;5.77;;;1.60;;
7545;SDS011;3814;51.454;12.616;2024-02-04T10:12:47;3.13;;;1.52;;
7545;SDS011;3814;51.454;12.616;2024-02-04T10:15:12;2.15;;;1.20;;
7545;SDS011;3814;51.454;12.616;2024-02-04T10:17:41;1.65;;;1.20;;
7545;SDS011;3814;51.454;12.616;2024-02-04T10:20:09;2.17;;;1.17;;
7545;SDS011;3814;51.454;12.616;2024-02-04T10:22:35;2.55;;;1.55;;
7545;SDS011;3814;51.454;12.616;2024-02-04T10:25:09;3.00;;;1.87;;
7545;SDS011;3814;51.454;12.616;2024-02-04T10:27:37;2.15;;;1.27;;
7545;SDS011;3814;51.454;12.616;2024-02-04T10:30:03;2.10;;;1.23;;
7545;SDS011;3814;51.454;12.616;2024-02-04T10:32:42;2.70;;;1.45;;
7545;SDS011;3814;51.454;12.616;2024-02-04T10:35:09;2.80;;;1.20;;
7545;SDS011;3814;51.454;12.616;2024-02-04T10:37:35;2.33;;;1.40;;
7545;SDS011;3814;51.454;12.616;2024-02-04T10:40:00;3.03;;;1.40;;
7545;SDS011;3814;51.454;12.616;2024-02-04T10:42:26;2.05;;;1.10;;
7545;SDS011;3814;51.454;12.616;2024-02-04T10:44:52;2.08;;;1.13;;
7545;SDS011;3814;51.454;12.616;2024-02-04T10:47:21;1.60;;;1.00;;
7545;SDS011;3814;51.454;12.616;2024-02-04T10:49:50;2.35;;;1.30;;
7545;SDS011;3814;51.454;12.616;2024-02-04T10:52:18;1.73;;;1.20;;
7545;SDS011;3814;51.454;12.616;2024-02-04T10:54:43;1.92;;;1.17;;
7545;SDS011;3814;51.454;12.616;2024-02-04T10:57:11;4.72;;;1.30;;
7545;SDS011;3814;51.454;12.616;2024-02-04T10:59:38;1.45;;;0.90;;
7545;SDS011;3814;51.454;12.616;2024-02-04T11:02:07;3.35;;;1.10;;
7545;SDS011;3814;51.454;12.616;2024-02-04T11:04:33;1.50;;;0.90;;
7545;SDS011;3814;51.454;12.616;2024-02-04T11:06:59;1.55;;;0.80;;
7545;SDS011;3814;51.454;12.616;2024-02-04T11:09:26;1.27;;;0.85;;
7545;SDS011;3814;51.454;12.616;2024-02-04T11:11:51;1.90;;;1.13;;
7545;SDS011;3814;51.454;12.616;2024-02-04T11:14:19;3.17;;;0.90;;
7545;SDS011;3814;51.454;12.616;2024-02-04T11:25:01;1.50;;;0.90;;
7545;SDS011;3814;51.454;12.616;2024-02-04T11:27:46;2.03;;;1.00;;
7545;SDS011;3814;51.454;12.616;2024-02-04T11:30:12;2.08;;;1.10;;
7545;SDS011;3814;51.454;12.616;2024-02-04T11:32:40;2.90;;;1.20;;
7545;SDS011;3814;51.454;12.616;2024-02-04T11:35:05;1.70;;;0.80;;
7545;SDS011;3814;51.454;12.616;2024-02-04T11:37:32;3.45;;;1.15;;
7545;SDS011;3814;51.454;12.616;2024-02-04T11:39:58;1.45;;;0.90;;
7545;SDS011;3814;51.454;12.616;2024-02-04T11:42:23;2.40;;;0.90;;
7545;SDS011;3814;51.454;12.616;2024-02-04T11:44:50;1.63;;;1.08;;
7545;SDS011;3814;51.454;12.616;2024-02-04T11:47:25;2.00;;;1.00;;
7545;SDS011;3814;51.454;12.616;2024-02-04T11:49:57;2.92;;;1.27;;
7545;SDS011;3814;51.454;12.616;2024-02-04T11:52:23;2.30;;;1.50;;
7545;SDS011;3814;51.454;12.616;2024-02-04T11:54:48;1.90;;;1.37;;
7545;SDS011;3814;51.454;12.616;2024-02-04T11:57:14;2.58;;;1.80;;
7545;SDS011;3814;51.454;12.616;2024-02-04T11:59:39;2.60;;;1.60;;
7545;SDS011;3814;51.454;12.616;2024-02-04T12:02:05;3.38;;;1.50;;
7545;SDS011;3814;51.454;12.616;2024-02-04T12:04:31;2.67;;;1.77;;
7545;SDS011;3814;51.454;12.616;2024-02-04T12:06:57;3.85;;;1.95;;
7545;SDS011;3814;51.454;12.616;2024-02-04T12:09:23;2.72;;;2.05;;
7545;SDS011;3814;51.454;12.616;2024-02-04T12:11:48;6.38;;;2.50;;
7545;SDS011;3814;51.454;12.616;2024-02-04T12:14:14;4.60;;;2.60;;
7545;SDS011;3814;51.454;12.616;2024-02-04T12:16:40;3.22;;;2.10;;
7545;SDS011;3814;51.454;12.616;2024-02-04T12:19:05;3.10;;;2.20;;
7545;SDS011;3814;51.454;12.616;2024-02-04T12:21:31;4.20;;;2.00;;
7545;SDS011;3814;51.454;12.616;2024-02-04T12:23:57;2.83;;;1.73;;
7545;SDS011;3814;51.454;12.616;2024-02-04T12:26:23;2.83;;;2.00;;
7545;SDS011;3814;51.454;12.616;2024-02-04T12:28:48;2.58;;;1.50;;
7545;SDS011;3814;51.454;12.616;2024-02-04T12:31:18;3.70;;;1.80;;
7545;SDS011;3814;51.454;12.616;2024-02-04T12:33:55;3.58;;;1.73;;
7545;SDS011;3814;51.454;12.616;2024-02-04T12:36:23;4.15;;;2.33;;
7545;SDS011;3814;51.454;12.616;2024-02-04T12:38:55;3.50;;;2.05;;
7545;SDS011;3814;51.454;12.616;2024-02-04T12:41:24;3.00;;;1.80;;
7545;SDS011;3814;51.454;12.616;2024-02-04T12:43:56;2.90;;;1.95;;
7545;SDS011;3814;51.454;12.616;2024-02-04T12:46:27;4.97;;;2.17;;
7545;SDS011;3814;51.454;12.616;2024-02-04T12:56:47;2.97;;;1.85;;
7545;SDS011;3814;51.454;12.616;2024-02-04T12:59:29;3.22;;;1.83;;
7545;SDS011;3814;51.454;12.616;2024-02-04T13:01:57;3.53;;;1.67;;
7545;SDS011;3814;51.454;12.616;2024-02-04T13:04:24;2.78;;;1.90;;
7545;SDS011;3814;51.454;12.616;2024-02-04T13:06:50;4.10;;;1.80;;
7545;SDS011;3814;51.454;12.616;2024-02-04T13:09:15;2.50;;;1.60;;
7545;SDS011;3814;51.454;12.616;2024-02-04T13:11:41;3.58;;;1.88;;
7545;SDS011;3814;51.454;12.616;2024-02-04T13:14:07;4.88;;;2.47;;
7545;SDS011;3814;51.454;12.616;2024-02-04T13:16:32;5.22;;;2.20;;
7545;SDS011;3814;51.454;12.616;2024-02-04T13:18:58;4.22;;;2.25;;
7545;SDS011;3814;51.454;12.616;2024-02-04T13:21:24;3.33;;;2.07;;
7545;SDS011;3814;51.454;12.616;2024-02-04T13:23:50;4.27;;;2.63;;
7545;SDS011;3814;51.454;12.616;2024-02-04T13:26:15;3.15;;;2.10;;
7545;SDS011;3814;51.454;12.616;2024-02-04T13:28:41;3.60;;;2.63;;
7545;SDS011;3814;51.454;12.616;2024-02-04T13:31:07;3.72;;;2.17;;
7545;SDS011;3814;51.454;12.616;2024-02-04T13:33:33;7.95;;;4.80;;
7545;SDS011;3814;51.454;12.616;2024-02-04T13:35:58;4.13;;;2.80;;
7545;SDS011;3814;51.454;12.616;2024-02-04T13:38:23;5.13;;;2.77;;
7545;SDS011;3814;51.454;12.616;2024-02-04T13:40:49;2.93;;;2.13;;
7545;SDS011;3814;51.454;12.616;2024-02-04T13:43:14;2.77;;;1.80;;
7545;SDS011;3814;51.454;12.616;2024-02-04T13:45:39;4.10;;;1.30;;
7545;SDS011;3814;51.454;12.616;2024-02-04T13:48:05;2.80;;;1.57;;
7545;SDS011;3814;51.454;12.616;2024-02-04T13:50:30;2.13;;;1.52;;
7545;SDS011;3814;51.454;12.616;2024-02-04T13:52:55;2.77;;;1.70;;
7545;SDS011;3814;51.454;12.616;2024-02-04T13:55:22;3.38;;;1.02;;
7545;SDS011;3814;51.454;12.616;2024-02-04T13:57:47;2.10;;;1.03;;
7545;SDS011;3814;51.454;12.616;2024-02-04T14:00:13;2.97;;;0.97;;
7545;SDS011;3814;51.454;12.616;2024-02-04T14:02:38;2.00;;;1.10;;
7545;SDS011;3814;51.454;12.616;2024-02-04T14:05:04;2.90;;;1.50;;
7545;SDS011;3814;51.454;12.616;2024-02-04T14:07:29;2.75;;;2.10;;
7545;SDS011;3814;51.454;12.616;2024-02-04T14:09:55;8.85;;;1.60;;
7545;SDS011;3814;51.454;12.616;2024-02-04T14:12:20;2.10;;;1.20;;
7545;SDS011;3814;51.454;12.616;2024-02-04T14:14:46;3.20;;;1.43;;
7545;SDS011;3814;51.454;12.616;2024-02-04T14:17:11;1.70;;;0.97;;
7545;SDS011;3814;51.454;12.616;2024-02-04T14:19:36;2.07;;;1.30;;
7545;SDS011;3814;51.454;12.616;2024-02-04T14:22:01;2.80;;;1.10;;
7545;SDS011;3814;51.454;12.616;2024-02-04T14:24:27;2.23;;;1.30;;
7545;SDS011;3814;51.454;12.616;2024-02-04T14:26:58;1.70;;;1.20;;
7545;SDS011;3814;51.454;12.616;2024-02-04T14:29:25;1.30;;;1.15;;
7545;SDS011;3814;51.454;12.616;2024-02-04T14:31:51;0.88;;;0.80;;
7545;SDS011;3814;51.454;12.616;2024-02-04T14:34:16;2.33;;;0.85;;
7545;SDS011;3814;51.454;12.616;2024-02-04T14:36:41;1.80;;;1.30;;
7545;SDS011;3814;51.454;12.616;2024-02-04T14:39:07;3.07;;;1.73;;
7545;SDS011;3814;51.454;12.616;2024-02-04T14:41:36;1.02;;;0.90;;
7545;SDS011;3814;51.454;12.616;2024-02-04T14:44:01;2.03;;;1.00;;
7545;SDS011;3814;51.454;12.616;2024-02-04T14:46:27;1.50;;;1.30;;
7545;SDS011;3814;51.454;12.616;2024-02-04T14:48:52;1.83;;;1.37;;
7545;SDS011;3814;51.454;12.616;2024-02-04T14:51:17;2.50;;;1.37;;
7545;SDS011;3814;51.454;12.616;2024-02-04T14:53:43;3.77;;;1.43;;
7545;SDS011;3814;51.454;12.616;2024-02-04T14:56:08;2.20;;;1.30;;
7545;SDS011;3814;51.454;12.616;2024-02-04T14:58:35;1.50;;;1.33;;
7545;SDS011;3814;51.454;12.616;2024-02-04T15:01:01;2.95;;;1.95;;
7545;SDS011;3814;51.454;12.616;2024-02-04T15:03:27;2.97;;;1.53;;
7545;SDS011;3814;51.454;12.616;2024-02-04T15:05:52;2.47;;;1.43;;
7545;SDS011;3814;51.454;12.616;2024-02-04T15:08:18;1.85;;;1.13;;
7545;SDS011;3814;51.454;12.616;2024-02-04T15:10:43;1.80;;;0.90;;